Latest Weather Observations for Bradshaw-Angallari Valley (Defence)

IDD60801

Issued at 4:21 pm CST Friday 3 December 2021 (issued every 10 minutes, with the page automatically refreshed every 10 minutes)

About weather observations | Map of weather stations | Latest weather observations for NT | Other Formats
Station Details ID: 014808 Name: BRADSHAW - ANGALLARI VALLEY (DEFENCE) Lat: -15.44 Lon: 130.57 Height: 60.0 m
Data from the previous 72 hours. | See also: Recent months at Bradshaw-Angallari Valley (Defence)
Date/Time
CST
Temp
°C
App
Temp
°C
Dew
Point
°C
Rel
Hum
%
Delta-T
°C
Wind Press
QNH
hPa
Press
MSL
hPa
Rain since
9am
mm
Dir  Spd
km/h
Gust
km/h
Spd
kts
Gust
kts
03/04:00pm 40.6 41.3 16.1 24 15.8 NNW 7 17 4 9 1005.1 1004.6 0.0
03/03:30pm 39.9 40.4 15.5 24 15.6 NNW 7 13 4 7 1005.5 1005.0 0.0
03/03:00pm 39.0 39.9 16.6 27 14.5 NNW 7 13 4 7 1005.9 1005.4 0.0
03/02:30pm 38.5 39.9 17.8 29 13.6 NNW 7 15 4 8 1006.4 1005.9 0.0
03/02:00pm 39.0 40.8 18.3 30 13.7 NNW 6 11 3 6 1006.8 1006.3 0.0
03/01:30pm 38.1 39.6 18.0 30 13.2 N 7 13 4 7 1007.3 1006.8 0.0
03/01:00pm 37.0 40.7 22.3 42 10.2 N 6 13 3 7 1007.8 1007.3 0.0
03/12:30pm 36.3 39.7 21.7 42 10.0 NE 6 17 3 9 1008.4 1007.9 0.0
03/12:00pm 35.8 38.4 20.5 41 10.3 N 7 13 4 7 1009.1 1008.6 0.0
03/11:30am 35.5 39.5 22.1 45 9.2 NW 4 7 2 4 1009.6 1009.1 0.0
03/11:00am 34.1 38.5 22.8 51 7.8 S 4 7 2 4 1010.1 1009.6 0.0
03/10:30am 33.8 39.3 24.1 57 6.8 WSW 2 6 1 3 1010.4 1009.9 0.0
03/10:00am 32.5 37.6 24.0 61 5.9 NNE 4 7 2 4 1010.5 1010.0 0.0
03/09:30am 31.1 36.7 24.2 66 4.8 NE 2 6 1 3 1010.5 1010.0 0.0
03/09:00am 30.2 34.9 23.9 69 4.4 NE 6 7 3 4 1010.4 1009.9 0.0
03/08:30am 29.5 34.0 23.9 72 3.9 NE 7 9 4 5 1010.1 1009.6 0.0
03/08:00am 28.8 32.6 23.5 73 3.7 NNE 9 15 5 8 1009.6 1009.1 0.0
03/07:30am 28.5 32.1 23.0 72 3.8 NE 9 15 5 8 1009.5 1009.0 0.0
03/07:00am 28.4 32.5 22.9 72 3.8 NE 6 9 3 5 1009.0 1008.5 0.0
03/06:30am 27.8 31.9 23.0 75 3.3 ENE 6 6 3 3 1008.5 1008.0 0.0
03/06:00am 27.7 33.0 23.7 79 2.8 W 2 6 1 3 1008.1 1007.6 0.0
03/05:30am 27.8 33.5 23.8 79 2.8 CALM 0 0 0 0 1007.7 1007.2 0.0
03/05:00am 28.2 33.9 23.8 77 3.0 CALM 0 0 0 0 1007.3 1006.8 0.0
03/04:30am 28.4 34.4 24.2 78 2.9 CALM 0 0 0 0 1006.9 1006.4 0.0
03/04:00am 28.3 33.9 24.3 79 2.8 W 2 2 1 1 1006.8 1006.3 0.0
03/03:30am 29.3 35.3 25.5 80 2.7 W 4 6 2 3 1006.6 1006.1 0.0
03/03:00am 29.6 35.2 25.4 78 3.0 WSW 6 9 3 5 1006.7 1006.2 0.0
03/02:30am 29.9 35.0 25.0 75 3.5 W 7 13 4 7 1006.9 1006.4 0.0
03/02:00am 30.5 35.6 24.9 72 3.9 WSW 7 13 4 7 1007.0 1006.5 0.0
03/01:30am 30.8 34.4 22.1 59 5.9 SW 6 9 3 5 1007.5 1007.0 0.0
03/01:00am 31.0 33.7 19.4 50 7.6 SW 4 6 2 3 1007.4 1006.9 0.0
03/12:30am 29.9 33.0 20.2 56 6.4 SSW 4 4 2 2 1007.5 1007.0 0.0
03/12:00am 30.2 33.7 19.6 53 7.0 CALM 0 0 0 0 1007.7 1007.2 0.0
 
Date/Time
CST
Temp
°C
App
Temp
°C
Dew
Point
°C
Rel
Hum
%
Delta-T
°C
Wind Press
QNH
hPa
Press
MSL
hPa
Rain since
9am
mm
Dir  Spd
km/h
Gust
km/h
Spd
kts
Gust
kts
02/11:30pm 30.5 33.5 19.2 51 7.4 E 2 6 1 3 1007.8 1007.3 0.0
02/11:00pm 31.0 34.6 19.7 51 7.4 CALM 0 4 0 2 1008.0 1007.5 0.0
02/10:30pm 31.7 33.8 19.0 47 8.3 E 6 7 3 4 1007.8 1007.3 0.0
02/10:00pm 32.0 34.8 19.6 47 8.2 E 4 6 2 3 1007.6 1007.1 0.0
02/09:30pm 33.0 35.7 19.5 45 8.9 ENE 4 6 2 3 1007.5 1007.0 0.0
02/09:00pm 33.3 36.1 19.7 44 9.0 NNE 4 6 2 3 1007.2 1006.7 0.0
02/08:30pm 33.9 36.4 19.9 43 9.3 NE 6 7 3 4 1007.0 1006.5 0.0
02/08:00pm 34.5 36.7 19.3 40 10.0 NNE 6 7 3 4 1006.9 1006.4 0.0
02/07:30pm 35.3 37.1 18.4 37 11.1 NNE 6 9 3 5 1006.5 1006.0 0.0
02/07:00pm 36.2 37.8 17.8 33 12.0 N 6 9 3 5 1006.0 1005.5 0.0
02/06:30pm 37.3 38.5 17.3 30 13.0 N 7 13 4 7 1005.6 1005.1 0.0
02/06:00pm 38.2 38.7 16.5 28 14.0 N 9 17 5 9 1005.1 1004.6 0.0
02/05:30pm 38.9 38.6 16.5 26 14.5 N 13 24 7 13 1004.6 1004.1 0.0
02/05:00pm 39.3 38.5 16.2 25 14.9 NNE 15 26 8 14 1004.6 1004.1 0.0
02/04:30pm 41.6 38.5 8.7 14 19.3 ENE 15 24 8 13 1004.5 1004.0 0.0
02/04:00pm 42.0 38.9 9.0 14 19.4 E 15 28 8 15 1004.6 1004.1 0.0
02/03:30pm 40.8 40.0 10.9 17 18.0 E 6 13 3 7 1004.9 1004.4 0.0
02/03:00pm 41.7 40.6 10.8 16 18.7 E 7 17 4 9 1005.3 1004.8 0.0
02/02:30pm 41.7 40.1 11.7 17 18.3 ESE 11 20 6 11 1005.6 1005.1 0.0
02/02:00pm 42.1 38.7 9.1 14 19.4 ENE 17 26 9 14 1006.1 1005.6 0.0
02/01:30pm 39.4 38.9 16.9 26 14.6 NNE 15 24 8 13 1006.3 1005.8 0.0
02/01:00pm 40.6 41.0 14.7 21 16.4 E 6 19 3 10 1006.8 1006.3 0.0
02/12:30pm 38.7 40.2 17.5 29 13.9 W 6 13 3 7 1007.3 1006.8 0.0
02/12:00pm 38.4 39.9 17.7 29 13.6 WSW 6 7 3 4 1007.8 1007.3 0.0
02/11:30am 37.0 38.9 18.5 33 12.2 SSW 6 13 3 7 1008.2 1007.7 0.0
02/11:00am 36.8 39.9 21.0 40 10.7 WNW 6 19 3 10 1008.7 1008.2 0.0
02/10:30am 35.8 40.0 22.4 46 9.3 WNW 4 9 2 5 1009.1 1008.6 0.0
02/10:00am 34.2 39.2 23.2 52 7.6 WSW 2 9 1 5 1009.3 1008.8 0.0
02/09:30am 33.3 38.7 23.9 58 6.6 WNW 2 9 1 5 1009.5 1009.0 0.0
02/09:00am 31.7 36.6 24.3 65 5.2 NNW 6 11 3 6 1009.6 1009.1 0.0
02/08:30am 31.1 36.2 24.7 68 4.5 NW 6 9 3 5 1009.5 1009.0 0.0
02/08:00am 30.6 36.3 25.0 72 3.9 NW 4 7 2 4 1009.1 1008.6 0.0
02/07:30am 30.8 37.1 24.7 70 4.3 CALM 0 0 0 0 1008.9 1008.4 0.0
02/07:00am 29.4 35.4 24.3 74 3.6 CALM 0 0 0 0 1008.8 1008.3 0.0
02/06:30am 28.5 34.3 23.9 76 3.2 CALM 0 6 0 3 1008.2 1007.7 0.0
02/06:00am 28.7 34.4 23.8 75 3.4 CALM 0 4 0 2 1007.9 1007.4 0.0
02/05:30am 28.7 33.2 23.6 74 3.5 WSW 6 9 3 5 1007.4 1006.9 0.0
02/05:00am 28.6 33.0 23.5 74 3.5 WSW 6 9 3 5 1006.9 1006.4 0.0
02/04:30am 28.4 33.1 23.3 74 3.5 WSW 4 9 2 5 1006.9 1006.4 0.0
02/04:00am 28.5 33.1 23.2 73 3.6 WSW 4 6 2 3 1007.0 1006.5 0.0
02/03:30am 28.5 32.6 22.3 69 4.2 SSW 4 6 2 3 1007.0 1006.5 0.0
02/03:00am 28.7 32.4 21.5 65 4.8 SSW 4 6 2 3 1007.1 1006.6 0.0
02/02:30am 29.4 32.8 21.6 63 5.3 WNW 6 11 3 6 1007.0 1006.5 0.0
02/02:00am 29.8 33.0 21.2 60 5.8 NW 6 11 3 6 1007.1 1006.6 0.0
02/01:30am 29.3 33.0 21.5 63 5.2 NW 4 7 2 4 1007.1 1006.6 0.0
02/01:00am 29.5 33.8 21.2 61 5.6 CALM 0 0 0 0 1007.3 1006.8 0.0
02/12:30am 30.3 34.4 20.8 56 6.3 CALM 0 0 0 0 1007.5 1007.0 0.0
02/12:00am 30.9 34.0 20.2 53 7.1 SSW 4 6 2 3 1007.5 1007.0 0.0
 
Date/Time
CST
Temp
°C
App
Temp
°C
Dew
Point
°C
Rel
Hum
%
Delta-T
°C
Wind Press
QNH
hPa
Press
MSL
hPa
Rain since
9am
mm
Dir  Spd
km/h
Gust
km/h
Spd
kts
Gust
kts
01/11:30pm 31.2 33.8 19.2 48 7.9 SSW 4 6 2 3 1007.6 1007.1 0.0
01/11:00pm 31.6 33.6 17.9 44 8.8 SSW 4 4 2 2 1007.8 1007.3 0.0
01/10:30pm 31.6 33.4 17.5 43 9.0 SW 4 6 2 3 1007.6 1007.1 0.0
01/10:00pm 31.9 33.5 17.0 41 9.5 WNW 4 9 2 5 1007.5 1007.0 0.0
01/09:30pm 31.2 33.0 17.5 44 8.8 ENE 4 6 2 3 1006.8 1006.3 0.0
01/09:00pm 32.4 34.3 16.7 39 10.0 NE 2 4 1 2 1006.6 1006.1 0.0
01/08:30pm 33.2 34.5 16.1 35 10.8 NE 4 6 2 3 1006.2 1005.7 0.0
01/08:00pm 33.9 35.3 16.3 35 11.1 NE 4 6 2 3 1005.8 1005.3 0.0
01/07:30pm 35.0 36.2 15.8 31 12.1 N 4 9 2 5 1005.4 1004.9 0.0
01/07:00pm 36.2 37.0 15.9 30 12.9 N 6 9 3 5 1005.1 1004.6 0.0
01/06:30pm 37.5 37.7 14.7 25 14.3 N 7 11 4 6 1004.8 1004.3 0.0
01/06:00pm 38.3 38.1 14.8 25 14.8 N 9 15 5 8 1004.4 1003.9 0.0
01/05:30pm 39.0 38.2 14.1 23 15.6 N 11 15 6 8 1004.1 1003.6 0.0
01/05:00pm 39.5 39.3 13.1 21 16.3 N 6 11 3 6 1003.9 1003.4 0.0
01/04:30pm 39.0 38.4 13.4 22 15.9 NNE 9 19 5 10 1004.0 1003.5 0.0
01/04:00pm 39.8 39.2 13.4 21 16.4 N 9 17 5 9 1004.1 1003.6 0.0
01/03:30pm 40.4 40.0 13.1 20 16.9 NE 7 11 4 6 1004.5 1004.0 0.0
01/03:00pm 39.9 39.3 13.4 20 16.5 NNE 9 20 5 11 1004.8 1004.3 0.0
01/02:30pm 39.0 39.2 14.7 23 15.3 NNE 7 17 4 9 1005.2 1004.7 0.0
01/02:00pm 40.0 40.5 15.6 24 15.6 NNE 7 17 4 9 1005.7 1005.2 0.0
01/01:30pm 39.0 40.1 17.2 28 14.2 N 7 17 4 9 1006.2 1005.7 0.0
01/01:00pm 38.5 39.2 16.2 27 14.3 NNE 7 19 4 10 1006.8 1006.3 0.0
01/12:30pm 38.1 39.2 18.0 30 13.2 N 9 15 5 8 1007.3 1006.8 0.0
01/12:00pm 37.0 39.5 19.0 34 12.0 NNE 4 13 2 7 1007.7 1007.2 0.0
01/11:30am 36.7 38.7 19.2 36 11.6 N 7 11 4 6 1008.0 1007.5 0.0
01/11:00am 35.4 37.6 19.7 39 10.5 NNW 7 13 4 7 1008.4 1007.9 0.0
01/10:30am 34.5 38.2 22.6 50 8.2 N 7 13 4 7 1008.7 1008.2 0.0
01/10:00am 32.9 36.8 23.0 56 6.8 NNE 7 11 4 6 1009.1 1008.6 0.0
01/09:30am 32.0 36.0 22.7 58 6.4 N 6 9 3 5 1009.2 1008.7 0.0
01/09:00am 31.1 34.4 21.9 58 6.2 NNE 7 13 4 7 1009.0 1008.5 0.0
01/08:30am 30.1 33.1 21.2 59 6.0 NNE 7 13 4 7 1009.0 1008.5 0.0
01/08:00am 29.8 33.0 19.8 55 6.6 NNW 2 6 1 3 1008.8 1008.3 0.0
01/07:30am 29.4 31.5 17.2 47 7.7 E 2 6 1 3 1008.7 1008.2 0.0
01/07:00am 26.3 27.4 15.7 52 6.5 ESE 4 6 2 3 1008.4 1007.9 0.0
01/06:30am 24.5 25.3 14.9 55 5.8 ESE 4 6 2 3 1008.0 1007.5 0.0
01/06:00am 24.2 24.1 14.0 53 6.0 E 7 9 4 5 1007.8 1007.3 0.0
01/05:30am 23.7 24.5 14.9 57 5.3 ESE 4 7 2 4 1007.0 1006.5 0.0
01/05:00am 24.3 25.0 14.4 54 5.9 SSE 4 6 2 3 1006.7 1006.2 0.0
01/04:30am 24.6 25.0 14.7 54 5.9 E 6 7 3 4 1006.3 1005.8 0.0
01/04:00am 23.8 24.4 15.3 59 5.1 E 6 9 3 5 1006.2 1005.7 0.0
01/03:30am 24.0 25.2 15.0 57 5.4 SW 2 6 1 3 1005.7 1005.2 0.0
01/03:00am 24.8 25.9 14.6 53 6.1 WNW 2 6 1 3 1005.6 1005.1 0.0
01/02:30am 24.9 25.6 12.2 45 7.3 CALM 0 0 0 0 1005.3 1004.8 0.0
01/02:00am 26.1 26.5 12.5 42 7.9 NE 2 6 1 3 1005.3 1004.8 0.0
01/01:30am 27.6 26.2 9.0 31 10.3 NNE 6 9 3 5 1005.4 1004.9 0.0
01/01:00am 27.5 27.7 11.9 38 9.0 ESE 2 4 1 2 1005.9 1005.4 0.0
01/12:30am 27.9 27.1 9.7 32 10.2 ENE 4 7 2 4 1006.3 1005.8 0.0
01/12:00am 28.8 27.6 9.5 30 10.8 E 6 13 3 7 1006.7 1006.2 0.0
 
Date/Time
CST
Temp
°C
App
Temp
°C
Dew
Point
°C
Rel
Hum
%
Delta-T
°C
Wind Press
QNH
hPa
Press
MSL
hPa
Rain since
9am
mm
Dir  Spd
km/h
Gust
km/h
Spd
kts
Gust
kts
30/11:30pm 28.7 28.0 9.9 31 10.6 SSE 4 6 2 3 1006.6 1006.1 0.0
30/11:00pm 28.4 28.5 12.7 38 9.2 SSE 4 6 2 3 1006.6 1006.1 0.0
30/10:30pm 29.1 28.9 10.3 31 10.7 SSE 2 4 1 2 1006.4 1005.9 0.0
30/10:00pm 29.1 29.1 12.5 36 9.8 SW 4 6 2 3 1006.4 1005.9 0.0
30/09:30pm 29.9 30.0 11.4 32 10.7 SW 2 4 1 2 1006.0 1005.5 0.0
30/09:00pm 30.8 30.6 11.7 31 11.2 WNW 4 6 2 3 1005.8 1005.3 0.0
30/08:30pm 31.6 32.2 11.9 30 11.6 CALM 0 0 0 0 1005.5 1005.0 0.0
30/08:00pm 32.9 32.9 9.7 24 13.3 CALM 0 0 0 0 1005.0 1004.5 0.0
30/07:30pm 34.8 34.8 9.9 22 14.4 CALM 0 2 0 1 1004.7 1004.2 0.0
30/07:00pm 37.4 35.8 6.4 15 17.2 ENE 4 6 2 3 1004.5 1004.0 0.0
30/06:30pm 39.0 36.7 5.6 13 18.5 ENE 7 13 4 7 1004.2 1003.7 0.0
30/06:00pm 40.2 37.2 4.1 11 19.7 ENE 9 17 5 9 1003.7 1003.2 0.0
30/05:30pm 40.5 37.3 3.0 10 20.1 E 9 17 5 9 1003.6 1003.1 0.0
30/05:00pm 41.1 37.8 4.8 11 20.0 SSE 11 20 6 11 1003.4 1002.9 0.0
30/04:30pm 41.2 37.6 4.9 11 20.1 ESE 13 24 7 13 1003.4 1002.9 0.0

Other formats

Comma delimited format used in spreadsheet applications
http://www.bom.gov.au/fwo/IDD60801/IDD60801.94221.axf

JavaScript Object Notation format (JSON) in row-major order
http://www.bom.gov.au/fwo/IDD60801/IDD60801.94221.json

Data quality

Most of these data are generated automatically and are frequently updated. Quality checks on data are not normally performed. It is possible for incorrect values to appear. Refer to information at About Latest Weather Observations and please check the disclaimer before using these data.